sensor_id;sensor_type;location;lat;lon;timestamp;temperature;humidity
1447;DHT22;717;51.522;7.266;2023-01-28T00:01:20;9.20;99.90
1447;DHT22;717;51.522;7.266;2023-01-28T00:03:49;9.20;99.90
1447;DHT22;717;51.522;7.266;2023-01-28T00:06:18;9.20;99.90
1447;DHT22;717;51.522;7.266;2023-01-28T00:08:47;9.20;99.90
1447;DHT22;717;51.522;7.266;2023-01-28T00:11:16;9.20;99.90
1447;DHT22;717;51.522;7.266;2023-01-28T00:13:46;9.20;99.90
1447;DHT22;717;51.522;7.266;2023-01-28T00:16:20;9.20;99.90
1447;DHT22;717;51.522;7.266;2023-01-28T00:18:51;9.20;99.90
1447;DHT22;717;51.522;7.266;2023-01-28T00:21:20;9.20;99.90
1447;DHT22;717;51.522;7.266;2023-01-28T00:23:51;9.20;99.90
1447;DHT22;717;51.522;7.266;2023-01-28T00:26:21;9.20;99.90
1447;DHT22;717;51.522;7.266;2023-01-28T00:28:50;9.20;99.90
1447;DHT22;717;51.522;7.266;2023-01-28T00:31:23;9.20;99.90
1447;DHT22;717;51.522;7.266;2023-01-28T00:33:52;9.20;99.90
1447;DHT22;717;51.522;7.266;2023-01-28T00:36:23;9.20;99.90
1447;DHT22;717;51.522;7.266;2023-01-28T00:38:53;9.20;99.90
1447;DHT22;717;51.522;7.266;2023-01-28T00:41:23;9.20;99.90
1447;DHT22;717;51.522;7.266;2023-01-28T00:43:53;9.20;99.90
1447;DHT22;717;51.522;7.266;2023-01-28T00:46:24;9.20;99.90
1447;DHT22;717;51.522;7.266;2023-01-28T00:48:53;9.20;99.90
1447;DHT22;717;51.522;7.266;2023-01-28T00:51:22;9.20;99.90
1447;DHT22;717;51.522;7.266;2023-01-28T00:53:50;9.20;99.90
1447;DHT22;717;51.522;7.266;2023-01-28T00:56:19;9.20;99.90
1447;DHT22;717;51.522;7.266;2023-01-28T00:58:48;9.20;99.90
1447;DHT22;717;51.522;7.266;2023-01-28T01:01:20;9.20;99.90
1447;DHT22;717;51.522;7.266;2023-01-28T01:03:52;9.20;99.90
1447;DHT22;717;51.522;7.266;2023-01-28T01:06:28;9.20;99.90
1447;DHT22;717;51.522;7.266;2023-01-28T01:08:56;9.20;99.90
1447;DHT22;717;51.522;7.266;2023-01-28T01:11:25;9.20;99.90
1447;DHT22;717;51.522;7.266;2023-01-28T01:13:55;9.20;99.90
1447;DHT22;717;51.522;7.266;2023-01-28T01:16:26;9.10;99.90
1447;DHT22;717;51.522;7.266;2023-01-28T01:18:59;9.10;99.90
1447;DHT22;717;51.522;7.266;2023-01-28T01:21:29;9.10;99.90
1447;DHT22;717;51.522;7.266;2023-01-28T01:23:57;9.10;99.90
1447;DHT22;717;51.522;7.266;2023-01-28T01:26:26;9.10;99.90
1447;DHT22;717;51.522;7.266;2023-01-28T01:28:55;9.20;99.90
1447;DHT22;717;51.522;7.266;2023-01-28T01:31:23;9.20;99.90
1447;DHT22;717;51.522;7.266;2023-01-28T01:33:52;9.10;99.90
1447;DHT22;717;51.522;7.266;2023-01-28T01:36:23;9.20;99.90
1447;DHT22;717;51.522;7.266;2023-01-28T01:38:53;9.10;99.90
1447;DHT22;717;51.522;7.266;2023-01-28T01:41:25;9.20;99.90
1447;DHT22;717;51.522;7.266;2023-01-28T01:43:56;9.20;99.90
1447;DHT22;717;51.522;7.266;2023-01-28T01:46:33;9.20;99.90
1447;DHT22;717;51.522;7.266;2023-01-28T01:49:10;9.20;99.90
1447;DHT22;717;51.522;7.266;2023-01-28T01:51:44;9.10;99.90
1447;DHT22;717;51.522;7.266;2023-01-28T01:54:14;9.10;99.90
1447;DHT22;717;51.522;7.266;2023-01-28T01:56:46;9.20;99.90
1447;DHT22;717;51.522;7.266;2023-01-28T01:59:20;9.20;99.90
1447;DHT22;717;51.522;7.266;2023-01-28T02:01:51;9.20;99.90
1447;DHT22;717;51.522;7.266;2023-01-28T02:04:24;9.10;99.90
1447;DHT22;717;51.522;7.266;2023-01-28T02:06:56;9.10;99.90
1447;DHT22;717;51.522;7.266;2023-01-28T02:09:27;9.10;99.90
1447;DHT22;717;51.522;7.266;2023-01-28T02:11:59;9.10;99.90
1447;DHT22;717;51.522;7.266;2023-01-28T02:14:32;9.10;99.90
1447;DHT22;717;51.522;7.266;2023-01-28T02:17:02;9.10;99.90
1447;DHT22;717;51.522;7.266;2023-01-28T02:19:36;9.10;99.90
1447;DHT22;717;51.522;7.266;2023-01-28T02:22:25;9.10;99.90
1447;DHT22;717;51.522;7.266;2023-01-28T02:25:24;9.00;99.90
1447;DHT22;717;51.522;7.266;2023-01-28T02:28:22;9.10;99.90
1447;DHT22;717;51.522;7.266;2023-01-28T02:31:00;9.00;99.90
1447;DHT22;717;51.522;7.266;2023-01-28T02:33:36;9.00;99.90
1447;DHT22;717;51.522;7.266;2023-01-28T02:36:15;9.00;99.90
1447;DHT22;717;51.522;7.266;2023-01-28T02:38:46;9.00;99.90
1447;DHT22;717;51.522;7.266;2023-01-28T02:41:22;9.00;99.90
1447;DHT22;717;51.522;7.266;2023-01-28T02:43:55;9.00;99.90
1447;DHT22;717;51.522;7.266;2023-01-28T02:46:34;9.00;99.90
1447;DHT22;717;51.522;7.266;2023-01-28T02:49:18;9.00;99.90
1447;DHT22;717;51.522;7.266;2023-01-28T02:54:47;8.90;99.90
1447;DHT22;717;51.522;7.266;2023-01-28T02:57:28;8.90;99.90
1447;DHT22;717;51.522;7.266;2023-01-28T03:00:06;8.90;99.90
1447;DHT22;717;51.522;7.266;2023-01-28T03:02:43;8.90;99.90
1447;DHT22;717;51.522;7.266;2023-01-28T03:05:18;8.90;99.90
1447;DHT22;717;51.522;7.266;2023-01-28T03:07:47;8.90;99.90
1447;DHT22;717;51.522;7.266;2023-01-28T03:10:20;8.90;99.90
1447;DHT22;717;51.522;7.266;2023-01-28T03:12:50;8.90;99.90
1447;DHT22;717;51.522;7.266;2023-01-28T03:15:37;8.90;99.90
1447;DHT22;717;51.522;7.266;2023-01-28T03:18:22;8.90;99.90
1447;DHT22;717;51.522;7.266;2023-01-28T03:21:06;8.90;99.90
1447;DHT22;717;51.522;7.266;2023-01-28T03:23:53;8.90;99.90
1447;DHT22;717;51.522;7.266;2023-01-28T03:26:41;8.90;99.90
1447;DHT22;717;51.522;7.266;2023-01-28T03:29:25;8.90;99.90
1447;DHT22;717;51.522;7.266;2023-01-28T03:32:12;8.90;99.90
1447;DHT22;717;51.522;7.266;2023-01-28T03:34:53;8.90;99.90
1447;DHT22;717;51.522;7.266;2023-01-28T03:37:34;9.00;99.90
1447;DHT22;717;51.522;7.266;2023-01-28T03:40:05;8.90;99.90
1447;DHT22;717;51.522;7.266;2023-01-28T03:42:35;8.90;99.90
1447;DHT22;717;51.522;7.266;2023-01-28T03:45:05;8.90;99.90
1447;DHT22;717;51.522;7.266;2023-01-28T03:47:36;8.90;99.90
1447;DHT22;717;51.522;7.266;2023-01-28T03:50:05;8.90;99.90
1447;DHT22;717;51.522;7.266;2023-01-28T03:52:34;8.90;99.90
1447;DHT22;717;51.522;7.266;2023-01-28T03:55:03;8.90;99.90
1447;DHT22;717;51.522;7.266;2023-01-28T03:57:38;8.90;99.90
1447;DHT22;717;51.522;7.266;2023-01-28T04:00:10;9.00;99.90
1447;DHT22;717;51.522;7.266;2023-01-28T04:02:41;8.90;99.90
1447;DHT22;717;51.522;7.266;2023-01-28T04:05:10;8.90;99.90
1447;DHT22;717;51.522;7.266;2023-01-28T04:07:40;8.90;99.90
1447;DHT22;717;51.522;7.266;2023-01-28T04:10:09;8.90;99.90
1447;DHT22;717;51.522;7.266;2023-01-28T04:12:39;8.90;99.90
1447;DHT22;717;51.522;7.266;2023-01-28T04:15:09;8.90;99.90
1447;DHT22;717;51.522;7.266;2023-01-28T04:17:48;8.90;99.90
1447;DHT22;717;51.522;7.266;2023-01-28T04:20:17;8.90;99.90
1447;DHT22;717;51.522;7.266;2023-01-28T04:22:45;8.90;99.90
1447;DHT22;717;51.522;7.266;2023-01-28T04:25:14;8.90;99.90
1447;DHT22;717;51.522;7.266;2023-01-28T04:27:43;8.90;99.90
1447;DHT22;717;51.522;7.266;2023-01-28T04:30:11;8.90;99.90
1447;DHT22;717;51.522;7.266;2023-01-28T04:32:40;8.90;99.90
1447;DHT22;717;51.522;7.266;2023-01-28T04:35:11;8.90;99.90
1447;DHT22;717;51.522;7.266;2023-01-28T04:37:40;8.90;99.90
1447;DHT22;717;51.522;7.266;2023-01-28T04:40:10;8.90;99.90
1447;DHT22;717;51.522;7.266;2023-01-28T04:42:39;8.90;99.90
1447;DHT22;717;51.522;7.266;2023-01-28T04:45:09;8.80;99.90
1447;DHT22;717;51.522;7.266;2023-01-28T04:47:37;8.80;99.90
1447;DHT22;717;51.522;7.266;2023-01-28T04:50:07;8.80;99.90
1447;DHT22;717;51.522;7.266;2023-01-28T04:52:38;8.80;99.90
1447;DHT22;717;51.522;7.266;2023-01-28T04:55:08;8.70;99.90
1447;DHT22;717;51.522;7.266;2023-01-28T04:57:37;8.70;99.90
1447;DHT22;717;51.522;7.266;2023-01-28T05:00:07;8.80;99.90
1447;DHT22;717;51.522;7.266;2023-01-28T05:02:35;8.80;99.90
1447;DHT22;717;51.522;7.266;2023-01-28T05:05:05;8.70;99.90
1447;DHT22;717;51.522;7.266;2023-01-28T05:07:34;8.80;99.90
1447;DHT22;717;51.522;7.266;2023-01-28T05:10:06;8.80;99.90
1447;DHT22;717;51.522;7.266;2023-01-28T05:12:35;8.80;99.90
1447;DHT22;717;51.522;7.266;2023-01-28T05:15:04;8.80;99.90
1447;DHT22;717;51.522;7.266;2023-01-28T05:17:33;8.80;99.90
1447;DHT22;717;51.522;7.266;2023-01-28T05:20:02;8.80;99.90
1447;DHT22;717;51.522;7.266;2023-01-28T05:22:31;8.70;99.90
1447;DHT22;717;51.522;7.266;2023-01-28T05:24:59;8.70;99.90
1447;DHT22;717;51.522;7.266;2023-01-28T05:27:32;8.80;99.90
1447;DHT22;717;51.522;7.266;2023-01-28T05:30:01;8.70;99.90
1447;DHT22;717;51.522;7.266;2023-01-28T05:32:31;8.70;99.90
1447;DHT22;717;51.522;7.266;2023-01-28T05:34:59;8.70;99.90
1447;DHT22;717;51.522;7.266;2023-01-28T05:37:28;8.70;99.90
1447;DHT22;717;51.522;7.266;2023-01-28T05:39:56;8.70;99.90
1447;DHT22;717;51.522;7.266;2023-01-28T05:42:25;8.70;99.90
1447;DHT22;717;51.522;7.266;2023-01-28T05:44:56;8.70;99.90
1447;DHT22;717;51.522;7.266;2023-01-28T05:47:25;8.70;99.90
1447;DHT22;717;51.522;7.266;2023-01-28T05:49:54;8.70;99.90
1447;DHT22;717;51.522;7.266;2023-01-28T05:52:22;8.70;99.90
1447;DHT22;717;51.522;7.266;2023-01-28T05:54:51;8.70;99.90
1447;DHT22;717;51.522;7.266;2023-01-28T05:57:19;8.70;99.90
1447;DHT22;717;51.522;7.266;2023-01-28T05:59:48;8.60;99.90
1447;DHT22;717;51.522;7.266;2023-01-28T06:02:19;8.70;99.90
1447;DHT22;717;51.522;7.266;2023-01-28T06:04:48;8.60;99.90
1447;DHT22;717;51.522;7.266;2023-01-28T06:07:16;8.60;99.90
1447;DHT22;717;51.522;7.266;2023-01-28T06:09:46;8.60;99.90
1447;DHT22;717;51.522;7.266;2023-01-28T06:12:15;8.60;99.90
1447;DHT22;717;51.522;7.266;2023-01-28T06:14:43;8.60;99.90
1447;DHT22;717;51.522;7.266;2023-01-28T06:17:12;8.50;99.90
1447;DHT22;717;51.522;7.266;2023-01-28T06:19:43;8.50;99.90
1447;DHT22;717;51.522;7.266;2023-01-28T06:22:11;8.50;99.90
1447;DHT22;717;51.522;7.266;2023-01-28T06:24:40;8.50;99.90
1447;DHT22;717;51.522;7.266;2023-01-28T06:27:08;8.50;99.90
1447;DHT22;717;51.522;7.266;2023-01-28T06:29:37;8.50;99.90
1447;DHT22;717;51.522;7.266;2023-01-28T06:32:06;8.50;99.90
1447;DHT22;717;51.522;7.266;2023-01-28T06:34:34;8.50;99.90
1447;DHT22;717;51.522;7.266;2023-01-28T06:37:06;8.50;99.90
1447;DHT22;717;51.522;7.266;2023-01-28T06:39:34;8.50;99.90
1447;DHT22;717;51.522;7.266;2023-01-28T06:42:03;8.50;99.90
1447;DHT22;717;51.522;7.266;2023-01-28T06:44:32;8.50;99.90
1447;DHT22;717;51.522;7.266;2023-01-28T06:47:01;8.50;99.90
1447;DHT22;717;51.522;7.266;2023-01-28T06:49:29;8.60;99.90
1447;DHT22;717;51.522;7.266;2023-01-28T06:51:58;8.60;99.90
1447;DHT22;717;51.522;7.266;2023-01-28T06:54:29;8.60;99.90
1447;DHT22;717;51.522;7.266;2023-01-28T06:56:57;8.50;99.90
1447;DHT22;717;51.522;7.266;2023-01-28T06:59:26;8.60;99.90
1447;DHT22;717;51.522;7.266;2023-01-28T07:01:55;8.60;99.90
1447;DHT22;717;51.522;7.266;2023-01-28T07:04:23;8.50;99.90
1447;DHT22;717;51.522;7.266;2023-01-28T07:06:52;8.50;99.90
1447;DHT22;717;51.522;7.266;2023-01-28T07:09:20;8.50;99.90
1447;DHT22;717;51.522;7.266;2023-01-28T07:11:51;8.50;99.90
1447;DHT22;717;51.522;7.266;2023-01-28T07:14:20;8.50;99.90
1447;DHT22;717;51.522;7.266;2023-01-28T07:16:49;8.50;99.90
1447;DHT22;717;51.522;7.266;2023-01-28T07:19:18;8.50;99.90
1447;DHT22;717;51.522;7.266;2023-01-28T07:21:46;8.50;99.90
1447;DHT22;717;51.522;7.266;2023-01-28T07:24:15;8.50;99.90
1447;DHT22;717;51.522;7.266;2023-01-28T07:26:43;8.50;99.90
1447;DHT22;717;51.522;7.266;2023-01-28T07:29:14;8.50;99.90
1447;DHT22;717;51.522;7.266;2023-01-28T07:31:43;8.50;99.90
1447;DHT22;717;51.522;7.266;2023-01-28T07:34:12;8.50;99.90
1447;DHT22;717;51.522;7.266;2023-01-28T07:36:40;8.50;99.90
1447;DHT22;717;51.522;7.266;2023-01-28T07:39:09;8.50;99.90
1447;DHT22;717;51.522;7.266;2023-01-28T07:41:37;8.50;99.90
1447;DHT22;717;51.522;7.266;2023-01-28T07:44:06;8.50;99.90
1447;DHT22;717;51.522;7.266;2023-01-28T07:46:37;8.50;99.90
1447;DHT22;717;51.522;7.266;2023-01-28T07:49:06;8.50;99.90
1447;DHT22;717;51.522;7.266;2023-01-28T07:51:34;8.60;99.90
1447;DHT22;717;51.522;7.266;2023-01-28T07:54:03;8.60;99.90
1447;DHT22;717;51.522;7.266;2023-01-28T07:56:32;8.50;99.90
1447;DHT22;717;51.522;7.266;2023-01-28T07:59:00;8.60;99.90
1447;DHT22;717;51.522;7.266;2023-01-28T08:01:29;8.50;99.90
1447;DHT22;717;51.522;7.266;2023-01-28T08:04:00;8.50;99.90
1447;DHT22;717;51.522;7.266;2023-01-28T08:06:29;8.50;99.90
1447;DHT22;717;51.522;7.266;2023-01-28T08:09:03;8.50;99.90
1447;DHT22;717;51.522;7.266;2023-01-28T08:11:33;8.50;99.90
1447;DHT22;717;51.522;7.266;2023-01-28T08:14:02;8.50;99.90
1447;DHT22;717;51.522;7.266;2023-01-28T08:16:30;8.50;99.90
1447;DHT22;717;51.522;7.266;2023-01-28T08:19:01;8.50;99.90
1447;DHT22;717;51.522;7.266;2023-01-28T08:21:30;8.50;99.90
1447;DHT22;717;51.522;7.266;2023-01-28T08:23:59;8.50;99.90
1447;DHT22;717;51.522;7.266;2023-01-28T08:26:27;8.50;99.90
1447;DHT22;717;51.522;7.266;2023-01-28T08:28:56;8.60;99.90
1447;DHT22;717;51.522;7.266;2023-01-28T08:31:24;8.50;99.90
1447;DHT22;717;51.522;7.266;2023-01-28T08:33:53;8.60;99.90
1447;DHT22;717;51.522;7.266;2023-01-28T08:36:24;8.50;99.90
1447;DHT22;717;51.522;7.266;2023-01-28T08:38:53;8.50;99.90
1447;DHT22;717;51.522;7.266;2023-01-28T08:41:22;8.50;99.90
1447;DHT22;717;51.522;7.266;2023-01-28T08:43:51;8.50;99.90
1447;DHT22;717;51.522;7.266;2023-01-28T08:46:20;8.50;99.90
1447;DHT22;717;51.522;7.266;2023-01-28T08:48:48;8.60;99.90
1447;DHT22;717;51.522;7.266;2023-01-28T08:51:17;8.50;99.90
1447;DHT22;717;51.522;7.266;2023-01-28T08:53:48;8.60;99.90
1447;DHT22;717;51.522;7.266;2023-01-28T08:56:17;8.50;99.90
1447;DHT22;717;51.522;7.266;2023-01-28T08:58:46;8.50;99.90
1447;DHT22;717;51.522;7.266;2023-01-28T09:01:14;8.50;99.90
1447;DHT22;717;51.522;7.266;2023-01-28T09:03:43;8.50;99.90
1447;DHT22;717;51.522;7.266;2023-01-28T09:06:12;8.50;99.90
1447;DHT22;717;51.522;7.266;2023-01-28T09:08:40;8.50;99.90
1447;DHT22;717;51.522;7.266;2023-01-28T09:11:11;8.50;99.90
1447;DHT22;717;51.522;7.266;2023-01-28T09:13:40;8.50;99.90
1447;DHT22;717;51.522;7.266;2023-01-28T09:16:09;8.50;99.90
1447;DHT22;717;51.522;7.266;2023-01-28T09:18:37;8.50;99.90
1447;DHT22;717;51.522;7.266;2023-01-28T09:21:06;8.50;99.90
1447;DHT22;717;51.522;7.266;2023-01-28T09:23:35;8.50;99.90
1447;DHT22;717;51.522;7.266;2023-01-28T09:26:05;8.50;99.90
1447;DHT22;717;51.522;7.266;2023-01-28T09:28:36;8.50;99.90
1447;DHT22;717;51.522;7.266;2023-01-28T09:31:07;8.50;99.90
1447;DHT22;717;51.522;7.266;2023-01-28T09:33:36;8.50;99.90
1447;DHT22;717;51.522;7.266;2023-01-28T09:36:07;8.50;99.90
1447;DHT22;717;51.522;7.266;2023-01-28T09:38:37;8.60;99.90
1447;DHT22;717;51.522;7.266;2023-01-28T09:41:20;8.60;99.90
1447;DHT22;717;51.522;7.266;2023-01-28T09:44:02;8.60;99.90
1447;DHT22;717;51.522;7.266;2023-01-28T09:46:35;8.60;99.90
1447;DHT22;717;51.522;7.266;2023-01-28T09:49:15;8.60;99.90
1447;DHT22;717;51.522;7.266;2023-01-28T09:51:49;8.60;99.90
1447;DHT22;717;51.522;7.266;2023-01-28T09:54:26;8.60;99.90
1447;DHT22;717;51.522;7.266;2023-01-28T09:57:00;8.60;99.90
1447;DHT22;717;51.522;7.266;2023-01-28T09:59:36;8.60;99.90
1447;DHT22;717;51.522;7.266;2023-01-28T10:02:25;8.50;99.90
1447;DHT22;717;51.522;7.266;2023-01-28T10:04:59;8.50;99.90
1447;DHT22;717;51.522;7.266;2023-01-28T10:07:36;8.50;99.90
1447;DHT22;717;51.522;7.266;2023-01-28T10:10:11;8.50;99.90
1447;DHT22;717;51.522;7.266;2023-01-28T10:12:52;8.50;99.90
1447;DHT22;717;51.522;7.266;2023-01-28T10:15:48;8.50;99.90
1447;DHT22;717;51.522;7.266;2023-01-28T10:18:21;8.60;99.90
1447;DHT22;717;51.522;7.266;2023-01-28T10:21:01;8.50;99.90
1447;DHT22;717;51.522;7.266;2023-01-28T10:23:40;8.60;99.90
1447;DHT22;717;51.522;7.266;2023-01-28T10:26:19;8.60;99.90
1447;DHT22;717;51.522;7.266;2023-01-28T10:28:53;8.60;99.90
1447;DHT22;717;51.522;7.266;2023-01-28T10:31:30;8.60;99.90
1447;DHT22;717;51.522;7.266;2023-01-28T10:34:01;8.60;99.90
1447;DHT22;717;51.522;7.266;2023-01-28T10:36:30;8.60;99.90
1447;DHT22;717;51.522;7.266;2023-01-28T10:38:58;8.60;99.90
1447;DHT22;717;51.522;7.266;2023-01-28T10:41:27;8.60;99.90
1447;DHT22;717;51.522;7.266;2023-01-28T10:43:56;8.60;99.90
1447;DHT22;717;51.522;7.266;2023-01-28T10:46:31;8.60;99.90
1447;DHT22;717;51.522;7.266;2023-01-28T10:49:06;8.60;99.90
1447;DHT22;717;51.522;7.266;2023-01-28T10:51:41;8.60;99.90
1447;DHT22;717;51.522;7.266;2023-01-28T10:54:19;8.60;99.90
1447;DHT22;717;51.522;7.266;2023-01-28T10:56:51;8.70;99.90
1447;DHT22;717;51.522;7.266;2023-01-28T10:59:24;8.70;99.90
1447;DHT22;717;51.522;7.266;2023-01-28T11:01:57;8.70;99.90
1447;DHT22;717;51.522;7.266;2023-01-28T11:04:29;8.70;99.90
1447;DHT22;717;51.522;7.266;2023-01-28T11:07:00;8.70;99.90
1447;DHT22;717;51.522;7.266;2023-01-28T11:09:30;8.70;99.90
1447;DHT22;717;51.522;7.266;2023-01-28T11:12:10;8.70;99.90
1447;DHT22;717;51.522;7.266;2023-01-28T11:14:49;8.60;99.90
1447;DHT22;717;51.522;7.266;2023-01-28T11:17:23;8.60;99.90
1447;DHT22;717;51.522;7.266;2023-01-28T11:19:53;8.50;99.90
1447;DHT22;717;51.522;7.266;2023-01-28T11:22:33;8.60;99.90
1447;DHT22;717;51.522;7.266;2023-01-28T11:25:06;8.40;99.90
1447;DHT22;717;51.522;7.266;2023-01-28T11:27:46;8.40;99.90
1447;DHT22;717;51.522;7.266;2023-01-28T11:30:22;8.40;99.90
1447;DHT22;717;51.522;7.266;2023-01-28T11:33:02;8.40;99.90
1447;DHT22;717;51.522;7.266;2023-01-28T11:35:33;8.40;99.90
1447;DHT22;717;51.522;7.266;2023-01-28T11:38:01;8.40;99.90
1447;DHT22;717;51.522;7.266;2023-01-28T11:40:30;8.40;99.90
1447;DHT22;717;51.522;7.266;2023-01-28T11:42:59;8.40;99.90
1447;DHT22;717;51.522;7.266;2023-01-28T11:45:35;8.40;99.90
1447;DHT22;717;51.522;7.266;2023-01-28T11:48:29;8.40;99.90
1447;DHT22;717;51.522;7.266;2023-01-28T11:51:03;8.40;99.90
1447;DHT22;717;51.522;7.266;2023-01-28T11:53:43;8.40;99.90
1447;DHT22;717;51.522;7.266;2023-01-28T11:56:42;8.40;99.90
1447;DHT22;717;51.522;7.266;2023-01-28T11:59:26;8.40;99.90
1447;DHT22;717;51.522;7.266;2023-01-28T12:02:06;8.40;99.90
1447;DHT22;717;51.522;7.266;2023-01-28T12:04:52;8.40;99.90
1447;DHT22;717;51.522;7.266;2023-01-28T12:07:34;8.50;99.90
1447;DHT22;717;51.522;7.266;2023-01-28T12:10:17;8.50;99.90
1447;DHT22;717;51.522;7.266;2023-01-28T12:13:00;8.50;99.90
1447;DHT22;717;51.522;7.266;2023-01-28T12:16:06;8.50;99.90
1447;DHT22;717;51.522;7.266;2023-01-28T12:18:52;8.50;99.90
1447;DHT22;717;51.522;7.266;2023-01-28T12:21:35;8.60;99.90
1447;DHT22;717;51.522;7.266;2023-01-28T12:24:19;8.50;99.90
1447;DHT22;717;51.522;7.266;2023-01-28T12:26:53;8.60;99.90
1447;DHT22;717;51.522;7.266;2023-01-28T12:29:30;8.60;99.90
1447;DHT22;717;51.522;7.266;2023-01-28T12:32:22;8.60;99.90
1447;DHT22;717;51.522;7.266;2023-01-28T12:35:23;8.60;99.90
1447;DHT22;717;51.522;7.266;2023-01-28T12:38:07;8.60;99.90
1447;DHT22;717;51.522;7.266;2023-01-28T12:40:46;8.60;99.90
1447;DHT22;717;51.522;7.266;2023-01-28T12:43:21;8.70;99.90
1447;DHT22;717;51.522;7.266;2023-01-28T12:45:56;8.70;99.90
1447;DHT22;717;51.522;7.266;2023-01-28T12:48:30;8.70;99.90
1447;DHT22;717;51.522;7.266;2023-01-28T12:51:03;8.70;99.90
1447;DHT22;717;51.522;7.266;2023-01-28T12:53:39;8.70;99.90
1447;DHT22;717;51.522;7.266;2023-01-28T12:56:14;8.70;99.90
1447;DHT22;717;51.522;7.266;2023-01-28T12:58:48;8.60;99.90
1447;DHT22;717;51.522;7.266;2023-01-28T13:01:23;8.60;99.90
1447;DHT22;717;51.522;7.266;2023-01-28T13:03:59;8.60;99.90
1447;DHT22;717;51.522;7.266;2023-01-28T13:06:32;8.70;99.90
1447;DHT22;717;51.522;7.266;2023-01-28T13:09:15;8.70;99.90
1447;DHT22;717;51.522;7.266;2023-01-28T13:11:46;8.80;99.90
1447;DHT22;717;51.522;7.266;2023-01-28T13:14:16;8.80;99.90
1447;DHT22;717;51.522;7.266;2023-01-28T13:16:45;8.90;99.90
1447;DHT22;717;51.522;7.266;2023-01-28T13:19:24;8.90;99.90
1447;DHT22;717;51.522;7.266;2023-01-28T13:22:10;8.90;99.90
1447;DHT22;717;51.522;7.266;2023-01-28T13:24:42;8.90;99.90
1447;DHT22;717;51.522;7.266;2023-01-28T13:27:12;8.90;99.90
1447;DHT22;717;51.522;7.266;2023-01-28T13:30:00;8.90;99.90
1447;DHT22;717;51.522;7.266;2023-01-28T13:32:32;8.90;99.90
1447;DHT22;717;51.522;7.266;2023-01-28T13:35:05;8.90;99.90
1447;DHT22;717;51.522;7.266;2023-01-28T13:37:37;9.00;99.90
1447;DHT22;717;51.522;7.266;2023-01-28T13:40:22;9.00;99.90
1447;DHT22;717;51.522;7.266;2023-01-28T13:43:00;9.00;99.90
1447;DHT22;717;51.522;7.266;2023-01-28T13:45:30;9.00;99.90
1447;DHT22;717;51.522;7.266;2023-01-28T13:48:12;9.10;99.90
1447;DHT22;717;51.522;7.266;2023-01-28T13:50:42;9.10;99.90
1447;DHT22;717;51.522;7.266;2023-01-28T13:53:22;9.10;99.90
1447;DHT22;717;51.522;7.266;2023-01-28T13:55:57;9.10;99.90
1447;DHT22;717;51.522;7.266;2023-01-28T13:58:52;9.20;99.90
1447;DHT22;717;51.522;7.266;2023-01-28T14:08:19;9.30;99.90
1447;DHT22;717;51.522;7.266;2023-01-28T14:11:04;9.30;99.90
1447;DHT22;717;51.522;7.266;2023-01-28T14:16:40;9.30;99.90
1447;DHT22;717;51.522;7.266;2023-01-28T14:19:20;9.30;99.90
1447;DHT22;717;51.522;7.266;2023-01-28T14:21:52;9.30;99.90
1447;DHT22;717;51.522;7.266;2023-01-28T14:24:21;9.30;99.90
1447;DHT22;717;51.522;7.266;2023-01-28T14:27:00;9.30;99.90
1447;DHT22;717;51.522;7.266;2023-01-28T14:29:49;9.30;99.90
1447;DHT22;717;51.522;7.266;2023-01-28T14:32:25;9.30;99.90
1447;DHT22;717;51.522;7.266;2023-01-28T14:34:54;9.30;99.90
1447;DHT22;717;51.522;7.266;2023-01-28T14:37:27;9.30;99.90
1447;DHT22;717;51.522;7.266;2023-01-28T14:39:58;9.30;99.90
1447;DHT22;717;51.522;7.266;2023-01-28T14:42:34;9.30;99.90
1447;DHT22;717;51.522;7.266;2023-01-28T14:45:13;9.30;99.90
1447;DHT22;717;51.522;7.266;2023-01-28T14:48:08;9.30;99.90
1447;DHT22;717;51.522;7.266;2023-01-28T14:50:52;9.30;99.90
1447;DHT22;717;51.522;7.266;2023-01-28T14:53:46;9.30;99.90
1447;DHT22;717;51.522;7.266;2023-01-28T14:56:30;9.30;99.90
1447;DHT22;717;51.522;7.266;2023-01-28T14:59:15;9.20;99.90
1447;DHT22;717;51.522;7.266;2023-01-28T15:01:47;9.20;99.90
1447;DHT22;717;51.522;7.266;2023-01-28T15:04:24;9.20;99.90
1447;DHT22;717;51.522;7.266;2023-01-28T15:06:53;9.20;99.90
1447;DHT22;717;51.522;7.266;2023-01-28T15:09:22;9.20;99.90
1447;DHT22;717;51.522;7.266;2023-01-28T15:11:54;9.20;99.90
1447;DHT22;717;51.522;7.266;2023-01-28T15:14:30;9.20;99.90
1447;DHT22;717;51.522;7.266;2023-01-28T15:17:00;9.20;99.90
1447;DHT22;717;51.522;7.266;2023-01-28T15:19:30;9.20;99.90
1447;DHT22;717;51.522;7.266;2023-01-28T15:22:01;9.20;99.90
1447;DHT22;717;51.522;7.266;2023-01-28T15:24:31;9.20;99.90
1447;DHT22;717;51.522;7.266;2023-01-28T15:27:02;9.20;99.90
1447;DHT22;717;51.522;7.266;2023-01-28T15:29:36;9.20;99.90
1447;DHT22;717;51.522;7.266;2023-01-28T15:32:05;9.20;99.90
1447;DHT22;717;51.522;7.266;2023-01-28T15:34:33;9.20;99.90
1447;DHT22;717;51.522;7.266;2023-01-28T15:37:02;9.10;99.90
1447;DHT22;717;51.522;7.266;2023-01-28T15:39:31;9.10;99.90
1447;DHT22;717;51.522;7.266;2023-01-28T15:42:03;9.20;99.90
1447;DHT22;717;51.522;7.266;2023-01-28T15:44:36;9.10;99.90
1447;DHT22;717;51.522;7.266;2023-01-28T15:47:14;9.10;99.90
1447;DHT22;717;51.522;7.266;2023-01-28T15:49:45;9.10;99.90
1447;DHT22;717;51.522;7.266;2023-01-28T15:52:14;9.10;99.90
1447;DHT22;717;51.522;7.266;2023-01-28T15:54:44;9.20;99.90
1447;DHT22;717;51.522;7.266;2023-01-28T15:57:18;9.10;99.90
1447;DHT22;717;51.522;7.266;2023-01-28T15:59:49;9.10;99.90
1447;DHT22;717;51.522;7.266;2023-01-28T16:02:19;9.10;99.90
1447;DHT22;717;51.522;7.266;2023-01-28T16:04:58;9.10;99.90
1447;DHT22;717;51.522;7.266;2023-01-28T16:07:29;9.10;99.90
1447;DHT22;717;51.522;7.266;2023-01-28T16:09:59;9.00;99.90
1447;DHT22;717;51.522;7.266;2023-01-28T16:12:29;9.00;99.90
1447;DHT22;717;51.522;7.266;2023-01-28T16:15:01;9.10;99.90
1447;DHT22;717;51.522;7.266;2023-01-28T16:17:38;9.00;99.90
1447;DHT22;717;51.522;7.266;2023-01-28T16:20:19;9.00;99.90
1447;DHT22;717;51.522;7.266;2023-01-28T16:22:48;8.90;99.90
1447;DHT22;717;51.522;7.266;2023-01-28T16:25:26;8.90;99.90
1447;DHT22;717;51.522;7.266;2023-01-28T16:27:55;8.90;99.90
1447;DHT22;717;51.522;7.266;2023-01-28T16:30:28;8.90;99.90
1447;DHT22;717;51.522;7.266;2023-01-28T16:32:56;8.80;99.90
1447;DHT22;717;51.522;7.266;2023-01-28T16:35:27;8.80;99.90
1447;DHT22;717;51.522;7.266;2023-01-28T16:37:56;8.80;99.90
1447;DHT22;717;51.522;7.266;2023-01-28T16:40:25;8.80;99.90
1447;DHT22;717;51.522;7.266;2023-01-28T16:42:54;8.80;99.90
1447;DHT22;717;51.522;7.266;2023-01-28T16:45:26;8.80;99.90
1447;DHT22;717;51.522;7.266;2023-01-28T16:47:55;8.70;99.90
1447;DHT22;717;51.522;7.266;2023-01-28T16:50:23;8.70;99.90
1447;DHT22;717;51.522;7.266;2023-01-28T16:52:54;8.70;99.90
1447;DHT22;717;51.522;7.266;2023-01-28T16:55:23;8.60;99.90
1447;DHT22;717;51.522;7.266;2023-01-28T16:57:53;8.50;99.90
1447;DHT22;717;51.522;7.266;2023-01-28T17:00:27;8.40;99.90
1447;DHT22;717;51.522;7.266;2023-01-28T17:02:57;8.50;99.90
1447;DHT22;717;51.522;7.266;2023-01-28T17:05:26;8.50;99.90
1447;DHT22;717;51.522;7.266;2023-01-28T17:07:55;8.40;99.90
1447;DHT22;717;51.522;7.266;2023-01-28T17:10:23;8.40;99.90
1447;DHT22;717;51.522;7.266;2023-01-28T17:12:52;8.40;99.90
1447;DHT22;717;51.522;7.266;2023-01-28T17:15:23;8.30;99.90
1447;DHT22;717;51.522;7.266;2023-01-28T17:17:54;8.30;99.90
1447;DHT22;717;51.522;7.266;2023-01-28T17:20:23;8.30;99.90
1447;DHT22;717;51.522;7.266;2023-01-28T17:22:52;8.30;99.90
1447;DHT22;717;51.522;7.266;2023-01-28T17:25:20;8.20;99.90